Elma — WDJ4079 — position and weather

sailwx.info

Track history (hours):
 
Tides and Currents Weather Stations Pressure Air Temp Water Temp Dewpoint Dewpoint Depression Visibility Wind Speed Wind Dir Waves Ship Positions

Elma

Owner: KALF YACHTING LLC, NEW CASTLE, DE. More information available from US FCC via Universal Licensing System and Coast Guard Vessel Documentation Center.

Last reported at 2018-May-24 19:13 UTC. Time now 2018-May-27 03:34 UTC.
Position N 32°05' E 034°46'.

Type: Sailing vessel. MMSI: 367774190.

Date/timePositionNaut miles runAvg speedWind from/ knotsBaromVisibWave heightAir tempDewpointWater temp
2018-May-24 19:13N 32°05' E 034°46'0 0.0
2018-May-24 18:55N 32°05' E 034°46'0 0.0
2018-May-24 18:28N 32°05' E 034°46'0 0.0
2018-May-24 17:58N 32°05' E 034°46'1 2.8
2018-May-24 17:28N 32°06' E 034°46'0 0.0
2018-May-24 16:58N 32°06' E 034°46'0 0.8
2018-May-24 16:30N 32°06' E 034°46'1 2.4
2018-May-24 15:58N 32°05' E 034°46'0 0.0
2018-May-24 15:19N 32°05' E 034°46'0 0.0
2018-May-24 14:55N 32°05' E 034°46'2 3.7
2018-May-24 14:30N 32°04' E 034°45'2 3.2
2018-May-24 14:00N 32°05' E 034°46'0 0.0
2018-May-22 13:14N 32°05' E 034°46'0 0.2
2018-May-22 13:01N 32°05' E 034°46'1 2.5
2018-May-22 12:29N 32°06' E 034°46'0 0.9
2018-May-22 11:58N 32°06' E 034°46'0 0.9
2018-May-22 11:30N 32°06' E 034°46'1 1.5
2018-May-22 10:48N 32°05' E 034°46'0 0.0
2018-May-22 10:30N 32°05' E 034°46'0 0.0
2018-May-22 10:00N 32°05' E 034°46'0 0.0
2018-May-22 09:27N 32°05' E 034°46'0 0.0
2018-May-22 09:00N 32°05' E 034°46'0 0.0
2018-May-22 08:27N 32°05' E 034°46'1 1.4
2018-May-22 07:59N 32°06' E 034°46'0 0.5
2018-May-22 07:30N 32°06' E 034°46'2 4.7
2018-May-22 07:00N 32°07' E 034°43'2 4.7
2018-May-22 06:30N 32°07' E 034°40'2 4.6
2018-May-22 06:00N 32°07' E 034°38'2 4.5
2018-May-22 05:30N 32°07' E 034°35'5 3.9
2018-May-22 04:10N 32°09' E 034°29'2 4.4
2018-May-22 03:42N 32°07' E 034°28'1 3.1
2018-May-22 03:15N 32°07' E 034°26'1 3.7
2018-May-22 02:59N 32°08' E 034°27'2 3.8
2018-May-22 02:28N 32°09' E 034°29'1 1.6
2018-May-22 02:00N 32°08' E 034°28'2 3.5
2018-May-22 01:28N 32°08' E 034°30'2 3.7
2018-May-22 01:00N 32°08' E 034°32'2 3.7
2018-May-22 00:30N 32°07' E 034°35'2 3.8
2018-May-21 23:57N 32°07' E 034°37'2 4.2
2018-May-21 23:27N 32°07' E 034°39'2 4.1
2018-May-21 23:00N 32°06' E 034°42'2 4.0
2018-May-21 22:29N 32°06' E 034°44'2 3.8
2018-May-21 22:00N 32°05' E 034°46'0 0.0
2018-May-21 15:42N 32°05' E 034°46'0 0.0
2018-May-21 15:30N 32°05' E 034°46'0 0.0
2018-May-21 15:00N 32°05' E 034°46'1 2.2
2018-May-21 14:29N 32°06' E 034°45'1 2.2
2018-May-21 13:55N 32°06' E 034°46'1 1.2
2018-May-21 13:30N 32°06' E 034°46'1 1.8
2018-May-21 12:54N 32°05' E 034°46'0 0.0
2018-May-21 12:30N 32°05' E 034°46'0 0.0
2018-May-19 13:51N 32°05' E 034°46'1 3.1
2018-May-19 13:30N 32°06' E 034°46'0 0.7
2018-May-19 12:57N 32°06' E 034°46'0 0.0
2018-May-19 12:30N 32°06' E 034°46'0 0.0
2018-May-19 12:00N 32°06' E 034°46'0 0.0
2018-May-19 11:30N 32°06' E 034°46'0 0.0
2018-May-19 10:57N 32°06' E 034°46'0 0.0
2018-May-19 10:29N 32°06' E 034°46'1 2.5
2018-May-19 10:00N 32°05' E 034°46'0 0.0
2018-May-18 11:11N 32°05' E 034°46'0 0.4
2018-May-18 11:01N 32°05' E 034°46'1 1.9
2018-May-18 10:30N 32°06' E 034°45'1 2.1
2018-May-18 09:56N 32°07' E 034°46'0 0.6
2018-May-18 09:31N 32°06' E 034°46'1 2.6
2018-May-18 08:59N 32°05' E 034°46'1 3.0
2018-May-18 08:30N 32°07' E 034°46'0 0.2
2018-May-18 08:00N 32°07' E 034°46'1 1.6
2018-May-18 07:29N 32°06' E 034°46'1 1.3
2018-May-18 06:49N 32°05' E 034°46'0 0.0
2018-May-18 06:29N 32°05' E 034°46'  
2018-May-15 15:49N 32°05' E 034°46'0 0.0
2018-May-15 15:25N 32°05' E 034°46'0 0.0
2018-May-15 14:55N 32°05' E 034°46'0 0.0
2018-May-15 14:28N 32°05' E 034°46'0 0.0
2018-May-15 13:58N 32°05' E 034°46'0 0.0
2018-May-15 13:28N 32°05' E 034°46'0 0.0
2018-May-15 12:58N 32°05' E 034°46'0 0.0
2018-May-15 12:25N 32°05' E 034°46'  
Track history (hours):
 
Tides and Currents Weather Stations Pressure Air Temp Water Temp Dewpoint Dewpoint Depression Visibility Wind Speed Wind Dir Waves Ship Positions

Elma

Owner: KALF YACHTING LLC, NEW CASTLE, DE. More information available from US FCC via Universal Licensing System and Coast Guard Vessel Documentation Center.

Last reported at 2018-May-24 19:13 UTC. Time now 2018-May-27 03:34 UTC.
Position N 32°05' E 034°46'.

Type: Sailing vessel. MMSI: 367774190.

Date/timePositionNaut miles runAvg speedWind from/ knotsBaromVisibWave heightAir tempDewpointWater temp
2018-May-24 19:13N 32°05' E 034°46'0 0.0
2018-May-24 18:55N 32°05' E 034°46'0 0.0
2018-May-24 18:28N 32°05' E 034°46'0 0.0
2018-May-24 17:58N 32°05' E 034°46'1 2.8
2018-May-24 17:28N 32°06' E 034°46'0 0.0
2018-May-24 16:58N 32°06' E 034°46'0 0.8
2018-May-24 16:30N 32°06' E 034°46'1 2.4
2018-May-24 15:58N 32°05' E 034°46'0 0.0
2018-May-24 15:19N 32°05' E 034°46'0 0.0
2018-May-24 14:55N 32°05' E 034°46'2 3.7
2018-May-24 14:30N 32°04' E 034°45'2 3.2
2018-May-24 14:00N 32°05' E 034°46'0 0.0
2018-May-22 13:14N 32°05' E 034°46'0 0.2
2018-May-22 13:01N 32°05' E 034°46'1 2.5
2018-May-22 12:29N 32°06' E 034°46'0 0.9
2018-May-22 11:58N 32°06' E 034°46'0 0.9
2018-May-22 11:30N 32°06' E 034°46'1 1.5
2018-May-22 10:48N 32°05' E 034°46'0 0.0
2018-May-22 10:30N 32°05' E 034°46'0 0.0
2018-May-22 10:00N 32°05' E 034°46'0 0.0
2018-May-22 09:27N 32°05' E 034°46'0 0.0
2018-May-22 09:00N 32°05' E 034°46'0 0.0
2018-May-22 08:27N 32°05' E 034°46'1 1.4
2018-May-22 07:59N 32°06' E 034°46'0 0.5
2018-May-22 07:30N 32°06' E 034°46'2 4.7
2018-May-22 07:00N 32°07' E 034°43'2 4.7
2018-May-22 06:30N 32°07' E 034°40'2 4.6
2018-May-22 06:00N 32°07' E 034°38'2 4.5
2018-May-22 05:30N 32°07' E 034°35'5 3.9
2018-May-22 04:10N 32°09' E 034°29'2 4.4
2018-May-22 03:42N 32°07' E 034°28'1 3.1
2018-May-22 03:15N 32°07' E 034°26'1 3.7
2018-May-22 02:59N 32°08' E 034°27'2 3.8
2018-May-22 02:28N 32°09' E 034°29'1 1.6
2018-May-22 02:00N 32°08' E 034°28'2 3.5
2018-May-22 01:28N 32°08' E 034°30'2 3.7
2018-May-22 01:00N 32°08' E 034°32'2 3.7
2018-May-22 00:30N 32°07' E 034°35'2 3.8
2018-May-21 23:57N 32°07' E 034°37'2 4.2
2018-May-21 23:27N 32°07' E 034°39'2 4.1
2018-May-21 23:00N 32°06' E 034°42'2 4.0
2018-May-21 22:29N 32°06' E 034°44'2 3.8
2018-May-21 22:00N 32°05' E 034°46'0 0.0
2018-May-21 15:42N 32°05' E 034°46'0 0.0
2018-May-21 15:30N 32°05' E 034°46'0 0.0
2018-May-21 15:00N 32°05' E 034°46'1 2.2
2018-May-21 14:29N 32°06' E 034°45'1 2.2
2018-May-21 13:55N 32°06' E 034°46'1 1.2
2018-May-21 13:30N 32°06' E 034°46'1 1.8
2018-May-21 12:54N 32°05' E 034°46'0 0.0
2018-May-21 12:30N 32°05' E 034°46'0 0.0
2018-May-19 13:51N 32°05' E 034°46'1 3.1
2018-May-19 13:30N 32°06' E 034°46'0 0.7
2018-May-19 12:57N 32°06' E 034°46'0 0.0
2018-May-19 12:30N 32°06' E 034°46'0 0.0
2018-May-19 12:00N 32°06' E 034°46'0 0.0
2018-May-19 11:30N 32°06' E 034°46'0 0.0
2018-May-19 10:57N 32°06' E 034°46'0 0.0
2018-May-19 10:29N 32°06' E 034°46'1 2.5
2018-May-19 10:00N 32°05' E 034°46'0 0.0
2018-May-18 11:11N 32°05' E 034°46'0 0.4
2018-May-18 11:01N 32°05' E 034°46'1 1.9
2018-May-18 10:30N 32°06' E 034°45'1 2.1
2018-May-18 09:56N 32°07' E 034°46'0 0.6
2018-May-18 09:31N 32°06' E 034°46'1 2.6
2018-May-18 08:59N 32°05' E 034°46'1 3.0
2018-May-18 08:30N 32°07' E 034°46'0 0.2
2018-May-18 08:00N 32°07' E 034°46'1 1.6
2018-May-18 07:29N 32°06' E 034°46'1 1.3
2018-May-18 06:49N 32°05' E 034°46'0 0.0
2018-May-18 06:29N 32°05' E 034°46'  
2018-May-15 15:49N 32°05' E 034°46'0 0.0
2018-May-15 15:25N 32°05' E 034°46'0 0.0
2018-May-15 14:55N 32°05' E 034°46'0 0.0
2018-May-15 14:28N 32°05' E 034°46'0 0.0
2018-May-15 13:58N 32°05' E 034°46'0 0.0
2018-May-15 13:28N 32°05' E 034°46'0 0.0
2018-May-15 12:58N 32°05' E 034°46'0 0.0
2018-May-15 12:25N 32°05' E 034°46'  

Dump ship's entire track history